Friar, Texas
Current Conditions -  °F | °C
As of 2:35 PM on Tuesday 25 Nov 2014 (Local Time) from KRFI Reporting Station
Clear Clear  
Wind Chill: 62°   Ceiling: Unl
Heat Index: 62°   Visibility: 10mi
Dew Point: 29°   Wind: 5mph
Humidity: 28%   Direction: 240°WSW
Pressure: 30.2"   Gusts: NA
Location:  32.2818°N, 94.951°W
Report Text: KRFI 252035Z AUTO 24004KT 10SM CLR 17/M02 A3020 RMK AO2 T01681019
Loading
Personal Weather Stations






























Interactive Weather Map New forecast layout! Learn more

10-Day Weather Forecast

Advertisements
Track Severe Weather on mobile